createdAt,value
2019-05-07T00:01:54.974Z,99785.20
2019-05-07T00:04:24.947Z,99784.74
2019-05-07T00:06:54.318Z,99783.44
2019-05-07T00:09:23.854Z,99785.92
2019-05-07T00:11:53.575Z,99783.78
2019-05-07T00:14:23.352Z,99791.27
2019-05-07T00:16:55.225Z,99790.12
2019-05-07T00:19:25.023Z,99786.48
2019-05-07T00:21:54.558Z,99782.73
2019-05-07T00:24:26.603Z,99767.70
2019-05-07T00:26:56.004Z,99770.55
2019-05-07T00:29:25.351Z,99773.37
2019-05-07T00:31:54.779Z,99764.13
2019-05-07T00:34:28.871Z,99769.12
2019-05-07T00:37:13.339Z,99763.01
2019-05-07T00:39:59.261Z,99766.15
2019-05-07T00:42:36.856Z,99769.78
2019-05-07T00:45:20.368Z,99770.12
2019-05-07T00:47:45.350Z,99761.53
2019-05-07T00:50:24.157Z,99766.85
2019-05-07T00:52:56.045Z,99766.69
2019-05-07T00:55:25.438Z,99767.84
2019-05-07T00:57:54.827Z,99760.91
2019-05-07T01:00:24.347Z,99768.05
2019-05-07T01:02:56.488Z,99765.89
2019-05-07T01:05:26.626Z,99773.19
2019-05-07T01:07:56.087Z,99773.19
2019-05-07T01:10:28.625Z,99761.47
2019-05-07T01:12:59.451Z,99761.47
2019-05-07T01:15:34.256Z,99761.47
2019-05-07T01:18:02.898Z,99761.83
2019-05-07T01:20:33.063Z,99765.28
2019-05-07T01:23:02.787Z,99759.34
2019-05-07T01:25:32.840Z,99762.31
2019-05-07T01:28:03.175Z,99749.77
2019-05-07T01:30:32.667Z,99755.22
2019-05-07T01:33:23.809Z,99757.03
2019-05-07T01:36:13.271Z,99753.56
2019-05-07T01:38:42.844Z,99762.97
2019-05-07T01:41:12.562Z,99745.66
2019-05-07T01:43:42.952Z,99751.77
2019-05-07T01:46:12.641Z,99750.61
2019-05-07T01:48:42.982Z,99752.92
2019-05-07T01:51:12.962Z,99746.81
2019-05-07T01:53:43.124Z,99750.77
2019-05-07T01:56:12.593Z,99741.06
2019-05-07T01:58:42.598Z,99731.33
2019-05-07T02:01:13.075Z,99731.33
2019-05-07T02:03:53.350Z,99742.36
2019-05-07T02:06:43.290Z,99739.06
2019-05-07T02:09:22.517Z,99735.93
2019-05-07T02:12:13.117Z,99731.14
2019-05-07T02:14:42.668Z,99731.14
2019-05-07T02:17:13.612Z,99741.87
2019-05-07T02:19:43.228Z,99742.37
2019-05-07T02:22:13.450Z,99736.42
2019-05-07T02:24:45.495Z,99732.79
2019-05-07T02:27:14.986Z,99737.41
2019-05-07T02:29:44.384Z,99746.49
2019-05-07T02:32:13.734Z,99745.83
2019-05-07T02:34:45.623Z,99741.37
2019-05-07T02:37:18.138Z,99742.36
2019-05-07T02:39:54.189Z,99747.31
2019-05-07T02:42:24.740Z,99747.31
2019-05-07T02:45:14.595Z,99732.30
2019-05-07T02:47:44.064Z,99732.30
2019-05-07T02:50:22.754Z,99730.81
2019-05-07T02:53:04.166Z,99730.81
2019-05-07T02:55:38.012Z,99734.77
2019-05-07T02:58:07.384Z,99737.91
2019-05-07T03:00:36.747Z,99737.58
2019-05-07T03:03:06.543Z,99728.01
2019-05-07T03:05:36.116Z,99730.48
2019-05-07T03:08:05.952Z,99729.30
2019-05-07T03:10:35.394Z,99730.43
2019-05-07T03:13:08.374Z,99733.11
2019-05-07T03:15:37.982Z,99727.95
2019-05-07T03:18:07.397Z,99724.87
2019-05-07T03:20:48.528Z,99730.33
2019-05-07T03:23:22.832Z,99736.34
2019-05-07T03:26:04.359Z,99737.18
2019-05-07T03:28:49.162Z,99736.14
2019-05-07T03:31:26.149Z,99733.81
2019-05-07T03:34:06.868Z,99728.94
2019-05-07T03:36:48.556Z,99734.66
2019-05-07T03:39:17.993Z,99728.48
2019-05-07T03:41:47.367Z,99729.73
2019-05-07T03:44:33.583Z,99731.95
2019-05-07T03:47:19.024Z,99733.85
2019-05-07T03:49:58.625Z,99729.64
2019-05-07T03:52:29.383Z,99740.14
2019-05-07T03:55:03.720Z,99734.39
2019-05-07T03:57:33.555Z,99738.38
2019-05-07T04:00:04.177Z,99739.48
2019-05-07T04:02:33.876Z,99753.28
2019-05-07T04:05:04.319Z,99761.62
2019-05-07T04:07:34.222Z,99759.14
2019-05-07T04:10:04.950Z,99759.70
2019-05-07T04:12:34.637Z,99765.53
2019-05-07T04:15:05.493Z,99763.33
2019-05-07T04:17:34.881Z,99762.55
2019-05-07T04:20:23.700Z,99766.02
2019-05-07T04:22:53.560Z,99771.61
2019-05-07T04:25:48.023Z,99769.45
2019-05-07T04:28:36.272Z,99773.15
2019-05-07T04:31:05.642Z,99778.02
2019-05-07T04:33:38.805Z,99770.56
2019-05-07T04:36:26.618Z,99759.81
2019-05-07T04:38:59.191Z,99765.97
2019-05-07T04:41:28.538Z,99762.64
2019-05-07T04:44:03.142Z,99758.02
2019-05-07T04:46:33.391Z,99756.69
2019-05-07T04:49:03.705Z,99762.64
2019-05-07T04:51:48.319Z,99749.09
2019-05-07T04:54:17.677Z,99752.22
2019-05-07T04:56:47.202Z,99757.70
2019-05-07T04:59:16.793Z,99751.19
2019-05-07T05:01:53.226Z,99758.43
2019-05-07T05:04:30.661Z,99751.40
2019-05-07T05:06:57.467Z,99748.55
2019-05-07T05:09:28.247Z,99745.39
2019-05-07T05:12:02.449Z,99750.19
2019-05-07T05:14:33.467Z,99745.91
2019-05-07T05:17:02.155Z,99743.27
2019-05-07T05:19:32.342Z,99741.98
2019-05-07T05:22:08.944Z,99744.41
2019-05-07T05:24:42.539Z,99740.61
2019-05-07T05:27:12.263Z,99736.08
2019-05-07T05:29:42.971Z,99747.30
2019-05-07T05:32:12.757Z,99748.77
2019-05-07T05:34:42.684Z,99749.48
2019-05-07T05:37:12.189Z,99751.48
2019-05-07T05:39:42.672Z,99743.02
2019-05-07T05:42:30.041Z,99736.77
2019-05-07T05:45:09.561Z,99739.37
2019-05-07T05:47:41.940Z,99738.68
2019-05-07T05:50:13.513Z,99733.42
2019-05-07T05:52:51.960Z,99741.34
2019-05-07T05:55:24.012Z,99732.41
2019-05-07T05:58:12.263Z,99735.31
2019-05-07T06:01:06.606Z,99735.06
2019-05-07T06:04:07.134Z,99735.69
2019-05-07T06:07:07.925Z,99739.41
2019-05-07T06:10:03.522Z,99744.23
2019-05-07T06:12:52.242Z,99741.36
2019-05-07T06:15:43.855Z,99741.77
2019-05-07T06:18:32.729Z,99739.62
2019-05-07T06:21:36.747Z,99747.38
2019-05-07T06:24:08.434Z,99749.83
2019-05-07T06:26:39.447Z,99740.52
2019-05-07T06:29:09.031Z,99735.27
2019-05-07T06:31:38.461Z,99738.61
2019-05-07T06:34:07.886Z,99740.59
2019-05-07T06:36:38.951Z,99740.09
2019-05-07T06:39:22.146Z,99739.88
2019-05-07T06:42:09.589Z,99746.97
2019-05-07T06:44:38.956Z,99751.52
2019-05-07T06:47:08.343Z,99751.48
2019-05-07T06:49:37.802Z,99751.89
2019-05-07T06:52:07.218Z,99764.00
2019-05-07T06:54:36.596Z,99772.13
2019-05-07T06:57:06.006Z,99771.50
2019-05-07T06:59:49.047Z,99776.22
2019-05-07T07:02:26.936Z,99766.42
2019-05-07T07:05:25.736Z,99779.33
2019-05-07T07:07:57.709Z,99767.30
2019-05-07T07:10:44.975Z,99769.91
2019-05-07T07:13:15.607Z,99766.80
2019-05-07T07:15:45.056Z,99764.58
2019-05-07T07:18:14.507Z,99753.03
2019-05-07T07:20:43.914Z,99749.89
2019-05-07T07:23:13.281Z,99753.83
2019-05-07T07:25:43.066Z,99758.59
2019-05-07T07:28:12.549Z,99754.58
2019-05-07T07:31:09.964Z,99764.52
2019-05-07T07:33:43.559Z,99768.39
2019-05-07T07:36:12.671Z,99758.38
2019-05-07T07:38:42.169Z,99764.03
2019-05-07T07:41:32.705Z,99756.78
2019-05-07T07:44:02.182Z,99755.01
2019-05-07T07:46:33.043Z,99757.16
2019-05-07T07:49:10.697Z,99764.91
2019-05-07T07:51:41.469Z,99762.00
2019-05-07T07:54:06.244Z,99763.75
2019-05-07T07:56:56.185Z,99764.20
2019-05-07T07:59:39.437Z,99764.87
2019-05-07T08:02:26.720Z,99764.23
2019-05-07T08:04:56.110Z,99766.01
2019-05-07T08:07:26.064Z,99762.72
2019-05-07T08:09:55.997Z,99769.33
2019-05-07T08:12:25.371Z,99771.87
2019-05-07T08:15:13.057Z,99767.20
2019-05-07T08:17:26.073Z,99767.88
2019-05-07T08:19:55.407Z,99766.12
2019-05-07T08:22:24.797Z,99771.70
2019-05-07T08:24:54.294Z,99780.75
2019-05-07T08:27:24.764Z,99775.31
2019-05-07T08:29:54.261Z,99773.47
2019-05-07T08:32:42.395Z,99772.52
2019-05-07T08:35:33.652Z,99791.34
2019-05-07T08:38:03.199Z,99786.22
2019-05-07T08:40:32.720Z,99788.59
2019-05-07T08:43:03.237Z,99796.86
2019-05-07T08:45:58.408Z,99790.50
2019-05-07T08:48:39.446Z,99797.03
2019-05-07T08:51:08.824Z,99798.98
2019-05-07T08:53:38.178Z,99794.55
2019-05-07T08:56:07.550Z,99802.60
2019-05-07T08:58:38.226Z,99807.33
2019-05-07T09:01:07.558Z,99801.33
2019-05-07T09:03:43.536Z,99804.14
2019-05-07T09:06:14.532Z,99807.51
2019-05-07T09:08:44.586Z,99813.02
2019-05-07T09:11:14.002Z,99807.77
2019-05-07T09:13:43.378Z,99812.80
2019-05-07T09:16:13.143Z,99809.60
2019-05-07T09:18:42.718Z,99804.52
2019-05-07T09:21:12.683Z,99808.22
2019-05-07T09:23:42.476Z,99805.95
2019-05-07T09:26:14.079Z,99805.56
2019-05-07T09:29:11.688Z,99808.63
2019-05-07T09:31:59.693Z,99818.05
2019-05-07T09:34:32.672Z,99826.33
2019-05-07T09:37:03.993Z,99818.87
2019-05-07T09:39:33.429Z,99826.41
2019-05-07T09:42:02.779Z,99823.66
2019-05-07T09:44:32.579Z,99829.02
2019-05-07T09:47:02.668Z,99824.52
2019-05-07T09:49:32.664Z,99820.84
2019-05-07T09:52:05.599Z,99827.80
2019-05-07T09:54:33.635Z,99818.17
2019-05-07T09:57:03.040Z,99820.95
2019-05-07T09:59:32.706Z,99824.02
2019-05-07T10:02:02.259Z,99834.37
2019-05-07T10:04:32.692Z,99823.81
2019-05-07T10:07:02.638Z,99823.70
2019-05-07T10:09:32.994Z,99827.38
2019-05-07T10:12:24.836Z,99830.06
2019-05-07T10:14:54.260Z,99836.32
2019-05-07T10:17:32.744Z,99830.69
2019-05-07T10:20:04.422Z,99834.27
2019-05-07T10:22:33.636Z,99828.63
2019-05-07T10:25:03.197Z,99822.23
2019-05-07T10:27:32.646Z,99810.55
2019-05-07T10:30:02.685Z,99814.16
2019-05-07T10:32:34.677Z,99813.23
2019-05-07T10:35:04.367Z,99814.78
2019-05-07T10:37:33.925Z,99820.33
2019-05-07T10:40:06.367Z,99817.91
2019-05-07T10:42:35.772Z,99819.97
2019-05-07T10:45:17.244Z,99820.11
2019-05-07T10:47:53.704Z,99817.44
2019-05-07T10:50:35.586Z,99811.73
2019-05-07T10:52:56.548Z,99818.16
2019-05-07T10:55:26.036Z,99812.22
2019-05-07T10:57:55.429Z,99820.84
2019-05-07T11:00:26.432Z,99824.83
2019-05-07T11:02:56.023Z,99822.58
2019-05-07T11:05:25.442Z,99817.54
2019-05-07T11:07:55.025Z,99821.88
2019-05-07T11:10:25.694Z,99824.38
2019-05-07T11:12:55.277Z,99812.30
2019-05-07T11:15:24.652Z,99811.58
2019-05-07T11:18:03.776Z,99823.61
2019-05-07T11:20:45.653Z,99824.19
2019-05-07T11:23:04.250Z,99823.25
2019-05-07T11:25:33.668Z,99829.25
2019-05-07T11:28:04.644Z,99824.63
2019-05-07T11:30:34.101Z,99825.59
2019-05-07T11:33:03.555Z,99826.34
2019-05-07T11:35:32.943Z,99826.88
2019-05-07T11:38:16.762Z,99828.92
2019-05-07T11:40:34.916Z,99830.56
2019-05-07T11:43:13.617Z,99830.75
2019-05-07T11:45:58.930Z,99832.98
2019-05-07T11:48:28.496Z,99816.38
2019-05-07T11:51:12.290Z,99822.61
2019-05-07T11:54:02.075Z,99823.10
2019-05-07T11:56:32.809Z,99819.48
2019-05-07T11:59:02.653Z,99812.88
2019-05-07T12:01:43.483Z,99816.00
2019-05-07T12:04:03.371Z,99811.19
2019-05-07T12:06:32.781Z,99817.55
2019-05-07T12:09:03.006Z,99802.89
2019-05-07T12:11:32.845Z,99797.41
2019-05-07T12:14:02.222Z,99795.98
2019-05-07T12:16:32.205Z,99812.48
2019-05-07T12:19:02.369Z,99814.72
2019-05-07T12:21:32.128Z,99812.56
2019-05-07T12:24:19.286Z,99820.09
2019-05-07T12:26:48.638Z,99814.16
2019-05-07T12:29:18.012Z,99825.97
2019-05-07T12:32:18.459Z,99816.45
2019-05-07T12:34:58.934Z,99800.48
2019-05-07T12:37:28.466Z,99818.37
2019-05-07T12:40:01.845Z,99823.96
2019-05-07T12:42:32.725Z,99819.07
2019-05-07T12:45:02.617Z,99818.48
2019-05-07T12:47:31.972Z,99812.89
2019-05-07T12:50:01.443Z,99808.08
2019-05-07T12:52:43.017Z,99797.24
2019-05-07T12:55:24.836Z,99808.13
2019-05-07T12:57:54.418Z,99809.09
2019-05-07T13:00:43.651Z,99805.11
2019-05-07T13:03:32.492Z,99809.86
2019-05-07T13:06:02.504Z,99812.88
2019-05-07T13:08:32.892Z,99815.31
2019-05-07T13:11:03.292Z,99821.80
2019-05-07T13:13:33.532Z,99818.22
2019-05-07T13:16:03.142Z,99820.41
2019-05-07T13:18:35.386Z,99820.20
2019-05-07T13:21:04.759Z,99818.52
2019-05-07T13:23:34.225Z,99814.78
2019-05-07T13:26:04.033Z,99809.02
2019-05-07T13:28:33.379Z,99820.30
2019-05-07T13:31:04.744Z,99823.36
2019-05-07T13:33:37.103Z,99831.41
2019-05-07T13:36:06.462Z,99824.41
2019-05-07T13:38:45.917Z,99826.56
2019-05-07T13:41:37.015Z,99820.75
2019-05-07T13:44:26.682Z,99826.97
2019-05-07T13:47:15.143Z,99826.31
2019-05-07T13:49:45.129Z,99825.40
2019-05-07T13:52:14.660Z,99835.66
2019-05-07T13:54:44.025Z,99830.52
2019-05-07T13:57:13.656Z,99832.70
2019-05-07T13:59:43.073Z,99839.23
2019-05-07T14:02:15.503Z,99845.02
2019-05-07T14:04:44.792Z,99842.70
2019-05-07T14:07:14.175Z,99844.78
2019-05-07T14:09:43.983Z,99852.30
2019-05-07T14:12:13.509Z,99853.86
2019-05-07T14:14:42.865Z,99853.64
2019-05-07T14:17:12.803Z,99846.56
2019-05-07T14:19:42.777Z,99867.09
2019-05-07T14:22:16.343Z,99861.56
2019-05-07T14:24:43.281Z,99860.53
2019-05-07T14:27:14.962Z,99867.15
2019-05-07T14:29:44.333Z,99879.05
2019-05-07T14:32:32.713Z,99876.61
2019-05-07T14:35:12.400Z,99878.93
2019-05-07T14:37:48.131Z,99884.16
2019-05-07T14:40:17.765Z,99883.67
2019-05-07T14:42:52.605Z,99886.65
2019-05-07T14:45:23.802Z,99887.25
2019-05-07T14:47:53.424Z,99886.15
2019-05-07T14:50:28.512Z,99881.66
2019-05-07T14:52:58.099Z,99878.23
2019-05-07T14:55:30.009Z,99882.02
2019-05-07T14:58:14.711Z,99890.06
2019-05-07T15:00:44.138Z,99898.95
2019-05-07T15:03:13.721Z,99897.08
2019-05-07T15:05:43.185Z,99894.41
2019-05-07T15:08:14.417Z,99893.50
2019-05-07T15:10:44.569Z,99890.60
2019-05-07T15:13:14.048Z,99891.20
2019-05-07T15:15:44.891Z,99889.65
2019-05-07T15:18:26.258Z,99882.87
2019-05-07T15:20:58.721Z,99891.98
2019-05-07T15:23:31.693Z,99883.17
2019-05-07T15:26:04.869Z,99883.23
2019-05-07T15:28:35.380Z,99885.91
2019-05-07T15:31:32.076Z,99885.23
2019-05-07T15:34:02.914Z,99883.70
2019-05-07T15:36:32.657Z,99886.84
2019-05-07T15:39:06.371Z,99884.15
2019-05-07T15:42:05.066Z,99882.91
2019-05-07T15:44:32.205Z,99875.09
2019-05-07T15:47:24.908Z,99874.73
2019-05-07T15:49:54.299Z,99887.47
2019-05-07T15:52:41.127Z,99890.95
2019-05-07T15:55:11.922Z,99872.36
2019-05-07T15:57:42.834Z,99902.44
2019-05-07T16:00:15.148Z,99909.25
2019-05-07T16:02:47.453Z,99916.75
2019-05-07T16:05:18.259Z,99911.86
2019-05-07T16:07:49.312Z,99900.33
2019-05-07T16:10:18.691Z,99899.83
2019-05-07T16:12:53.104Z,99893.34
2019-05-07T16:15:23.520Z,99891.92
2019-05-07T16:17:58.162Z,99894.50
2019-05-07T16:20:27.776Z,99887.94
2019-05-07T16:23:12.097Z,99892.34
2019-05-07T16:25:32.824Z,99895.98
2019-05-07T16:28:04.872Z,99895.50
2019-05-07T16:30:33.748Z,99901.84
2019-05-07T16:33:03.208Z,99908.30
2019-05-07T16:35:32.859Z,99910.19
2019-05-07T16:38:02.251Z,99909.11
2019-05-07T16:40:32.429Z,99911.89
2019-05-07T16:43:02.721Z,99911.67
2019-05-07T16:45:32.263Z,99919.55
2019-05-07T16:48:03.165Z,99923.35
2019-05-07T16:50:32.803Z,99918.98
2019-05-07T16:53:02.838Z,99930.69
2019-05-07T16:55:36.945Z,99924.84
2019-05-07T16:58:14.599Z,99936.84
2019-05-07T17:00:49.433Z,99936.28
2019-05-07T17:03:23.664Z,99937.73
2019-05-07T17:05:53.231Z,99925.16
2019-05-07T17:08:42.356Z,99935.71
2019-05-07T17:11:12.141Z,99930.05
2019-05-07T17:13:42.516Z,99932.50
2019-05-07T17:16:12.764Z,99928.50
2019-05-07T17:18:42.295Z,99933.40
2019-05-07T17:21:12.316Z,99936.01
2019-05-07T17:23:44.668Z,99941.23
2019-05-07T17:26:12.971Z,99935.56
2019-05-07T17:28:42.705Z,99943.23
2019-05-07T17:31:12.754Z,99948.73
2019-05-07T17:33:42.576Z,99954.42
2019-05-07T17:36:14.593Z,99963.92
2019-05-07T17:38:43.956Z,99975.95
2019-05-07T17:41:21.015Z,99965.31
2019-05-07T17:43:44.554Z,99958.06
2019-05-07T17:46:13.922Z,99958.66
2019-05-07T17:48:44.522Z,99957.28
2019-05-07T17:51:32.883Z,99954.22
2019-05-07T17:54:02.697Z,99963.01
2019-05-07T17:56:32.167Z,99958.25
2019-05-07T17:59:02.859Z,99967.08
2019-05-07T18:01:52.481Z,99964.13
2019-05-07T18:04:24.329Z,99974.16
2019-05-07T18:06:53.917Z,99970.86
2019-05-07T18:09:23.562Z,99959.30
2019-05-07T18:11:53.296Z,99967.57
2019-05-07T18:14:23.423Z,99972.03
2019-05-07T18:17:13.535Z,99968.84
2019-05-07T18:19:45.593Z,99972.33
2019-05-07T18:22:15.065Z,99983.53
2019-05-07T18:24:44.432Z,99988.25
2019-05-07T18:27:23.942Z,99988.11
2019-05-07T18:29:53.613Z,99990.16
2019-05-07T18:32:27.868Z,99994.43
2019-05-07T18:34:57.234Z,99997.02
2019-05-07T18:37:26.728Z,99993.42
2019-05-07T18:39:56.295Z,100003.95
2019-05-07T18:42:25.719Z,100001.13
2019-05-07T18:44:55.248Z,100001.80
2019-05-07T18:47:24.651Z,100009.13
2019-05-07T18:49:57.231Z,100005.30
2019-05-07T18:52:29.042Z,100011.36
2019-05-07T18:54:58.433Z,100016.20
2019-05-07T18:57:29.877Z,100019.23
2019-05-07T19:00:02.576Z,100019.77
2019-05-07T19:02:32.164Z,100019.69
2019-05-07T19:05:02.772Z,100024.31
2019-05-07T19:07:32.613Z,100027.64
2019-05-07T19:10:02.811Z,100025.82
2019-05-07T19:12:34.392Z,100032.41
2019-05-07T19:15:04.583Z,100040.16
2019-05-07T19:17:33.968Z,100044.21
2019-05-07T19:20:03.549Z,100039.95
2019-05-07T19:22:33.289Z,100031.87
2019-05-07T19:25:03.172Z,100032.75
2019-05-07T19:27:32.869Z,100040.92
2019-05-07T19:30:02.463Z,100038.50
2019-05-07T19:32:32.401Z,100035.60
2019-05-07T19:35:01.939Z,100038.95
2019-05-07T19:37:32.075Z,100044.00
2019-05-07T19:40:02.150Z,100038.50
2019-05-07T19:42:31.977Z,100045.38
2019-05-07T19:45:02.686Z,100047.66
2019-05-07T19:47:32.824Z,100049.11
2019-05-07T19:50:02.286Z,100056.12
2019-05-07T19:52:33.150Z,100054.37
2019-05-07T19:55:04.831Z,100056.11
2019-05-07T19:57:38.393Z,100053.03
2019-05-07T20:00:08.469Z,100055.55
2019-05-07T20:02:44.328Z,100057.13
2019-05-07T20:05:13.669Z,100056.16
2019-05-07T20:07:43.065Z,100062.16
2019-05-07T20:10:14.254Z,100061.70
2019-05-07T20:12:43.604Z,100060.58
2019-05-07T20:15:13.259Z,100062.27
2019-05-07T20:17:45.906Z,100064.92
2019-05-07T20:20:17.458Z,100063.77
2019-05-07T20:22:46.602Z,100066.11
2019-05-07T20:25:19.109Z,100065.93
2019-05-07T20:27:47.134Z,100069.55
2019-05-07T20:30:16.696Z,100068.84
2019-05-07T20:32:46.068Z,100071.82
2019-05-07T20:35:15.463Z,100075.45
2019-05-07T20:37:44.841Z,100079.75
2019-05-07T20:40:14.280Z,100080.91
2019-05-07T20:42:43.626Z,100084.25
2019-05-07T20:45:13.013Z,100087.41
2019-05-07T20:47:42.416Z,100081.63
2019-05-07T20:50:12.843Z,100083.34
2019-05-07T20:52:42.283Z,100091.50
2019-05-07T20:55:30.660Z,100095.20
2019-05-07T20:57:57.107Z,100103.84
2019-05-07T21:00:27.961Z,100110.73
2019-05-07T21:03:15.222Z,100107.64
2019-05-07T21:05:44.624Z,100106.05
2019-05-07T21:08:14.103Z,100102.45
2019-05-07T21:10:43.456Z,100101.53
2019-05-07T21:13:27.009Z,100101.41
2019-05-07T21:15:44.232Z,100100.97
2019-05-07T21:18:14.181Z,100106.62
2019-05-07T21:20:43.668Z,100099.34
2019-05-07T21:23:13.079Z,100098.69
2019-05-07T21:25:45.818Z,100101.02
2019-05-07T21:28:13.610Z,100098.04
2019-05-07T21:30:42.992Z,100100.02
2019-05-07T21:33:12.384Z,100103.84
2019-05-07T21:35:42.952Z,100101.20
2019-05-07T21:38:12.787Z,100106.02
2019-05-07T21:40:42.957Z,100108.03
2019-05-07T21:43:14.206Z,100109.36
2019-05-07T21:45:44.632Z,100110.88
2019-05-07T21:48:14.045Z,100112.55
2019-05-07T21:50:43.546Z,100114.77
2019-05-07T21:53:19.813Z,100111.30
2019-05-07T21:56:08.141Z,100116.63
2019-05-07T21:58:41.166Z,100115.37
2019-05-07T22:01:35.804Z,100109.69
2019-05-07T22:04:05.844Z,100109.69
2019-05-07T22:06:35.243Z,100117.69
2019-05-07T22:09:06.586Z,100116.89
2019-05-07T22:11:35.943Z,100119.92
2019-05-07T22:14:05.329Z,100123.75
2019-05-07T22:16:34.866Z,100119.55
2019-05-07T22:19:06.495Z,100128.66
2019-05-07T22:21:35.927Z,100128.66
2019-05-07T22:24:05.520Z,100137.28
2019-05-07T22:26:34.973Z,100128.18
2019-05-07T22:29:04.434Z,100130.70
2019-05-07T22:31:59.143Z,100135.71
2019-05-07T22:34:37.391Z,100135.71
2019-05-07T22:37:06.875Z,100147.13
2019-05-07T22:39:36.239Z,100128.95
2019-05-07T22:42:05.692Z,100139.72
2019-05-07T22:44:35.079Z,100136.27
2019-05-07T22:47:22.218Z,100139.25
2019-05-07T22:49:53.486Z,100136.27
2019-05-07T22:52:23.369Z,100139.27
2019-05-07T22:54:52.844Z,100136.28
2019-05-07T22:57:42.014Z,100138.10
2019-05-07T23:00:15.427Z,100137.80
2019-05-07T23:02:44.783Z,100133.66
2019-05-07T23:05:14.164Z,100133.64
2019-05-07T23:07:44.026Z,100132.98
2019-05-07T23:10:13.670Z,100141.28
2019-05-07T23:12:43.045Z,100140.28
2019-05-07T23:15:12.869Z,100138.13
2019-05-07T23:17:42.270Z,100136.14
2019-05-07T23:20:13.104Z,100140.43
2019-05-07T23:22:42.883Z,100141.25
2019-05-07T23:25:12.409Z,100135.98
2019-05-07T23:27:42.062Z,100146.23
2019-05-07T23:30:12.966Z,100141.92
2019-05-07T23:32:42.587Z,100145.73
2019-05-07T23:35:12.682Z,100143.09
2019-05-07T23:37:44.204Z,100141.43
2019-05-07T23:40:23.176Z,100146.88
2019-05-07T23:42:53.761Z,100148.05
2019-05-07T23:45:23.242Z,100144.89
2019-05-07T23:47:52.755Z,100143.55
2019-05-07T23:50:22.610Z,100142.58
2019-05-07T23:52:54.849Z,100136.96
2019-05-07T23:55:24.365Z,100138.61
2019-05-07T23:57:56.603Z,100140.91
